Terminal Aerodrome Forecast
Issued by NWS

Home | Current Version | Previous Version | Text Only | Print | Product List | Glossary On
Versions: 1 2 3 4 5 6 7 8 9 10 11 12 13 14 15 16 17 18
000
FTUS46 KSGX 230520
TAFCRQ
TAF
KCRQ 230520Z 2306/2406 26011KT P6SM -SHRA SCT015 SCT025 SCT035
     FM230700 26009KT P6SM VCSH SCT015 SCT025 BKN035
     FM231500 VRB06KT P6SM SCT035
     FM231800 26010KT P6SM SCT040
     FM240100 VRB05KT P6SM FEW040=

USA.gov is the U.S. government's official web portal to all federal, state and local government web resources and services.